sensor_id;sensor_type;location;lat;lon;timestamp;P1;durP1;ratioP1;P2;durP2;ratioP2
28587;SDS011;15787;49.662;10.162;2022-10-16T00:01:03;3.22;;;0.70;;
28587;SDS011;15787;49.662;10.162;2022-10-16T00:03:32;2.00;;;0.52;;
28587;SDS011;15787;49.662;10.162;2022-10-16T00:06:00;2.75;;;0.60;;
28587;SDS011;15787;49.662;10.162;2022-10-16T00:08:29;2.60;;;0.70;;
28587;SDS011;15787;49.662;10.162;2022-10-16T00:11:00;2.25;;;0.50;;
28587;SDS011;15787;49.662;10.162;2022-10-16T00:13:30;1.48;;;0.73;;
28587;SDS011;15787;49.662;10.162;2022-10-16T00:16:00;1.90;;;0.60;;
28587;SDS011;15787;49.662;10.162;2022-10-16T00:18:28;0.43;;;0.40;;
28587;SDS011;15787;49.662;10.162;2022-10-16T00:21:01;0.80;;;0.50;;
28587;SDS011;15787;49.662;10.162;2022-10-16T00:23:30;2.92;;;0.60;;
28587;SDS011;15787;49.662;10.162;2022-10-16T00:25:59;2.00;;;0.60;;
28587;SDS011;15787;49.662;10.162;2022-10-16T00:30:57;2.78;;;1.15;;
28587;SDS011;15787;49.662;10.162;2022-10-16T00:33:26;2.72;;;0.80;;
28587;SDS011;15787;49.662;10.162;2022-10-16T00:35:54;1.83;;;0.60;;
28587;SDS011;15787;49.662;10.162;2022-10-16T00:38:25;1.77;;;0.60;;
28587;SDS011;15787;49.662;10.162;2022-10-16T00:40:53;2.60;;;0.55;;
28587;SDS011;15787;49.662;10.162;2022-10-16T00:43:35;2.38;;;1.23;;
28587;SDS011;15787;49.662;10.162;2022-10-16T00:46:08;2.28;;;0.80;;
28587;SDS011;15787;49.662;10.162;2022-10-16T00:48:42;4.63;;;0.68;;
28587;SDS011;15787;49.662;10.162;2022-10-16T00:51:16;1.95;;;0.70;;
28587;SDS011;15787;49.662;10.162;2022-10-16T00:53:46;2.65;;;0.75;;
28587;SDS011;15787;49.662;10.162;2022-10-16T00:56:15;3.60;;;0.47;;
28587;SDS011;15787;49.662;10.162;2022-10-16T00:58:44;1.50;;;0.60;;
28587;SDS011;15787;49.662;10.162;2022-10-16T01:01:12;7.07;;;0.75;;
28587;SDS011;15787;49.662;10.162;2022-10-16T01:03:40;3.67;;;0.68;;
28587;SDS011;15787;49.662;10.162;2022-10-16T01:06:19;2.33;;;0.68;;
28587;SDS011;15787;49.662;10.162;2022-10-16T01:09:08;1.10;;;0.70;;
28587;SDS011;15787;49.662;10.162;2022-10-16T01:11:45;4.20;;;0.73;;
28587;SDS011;15787;49.662;10.162;2022-10-16T01:14:23;1.27;;;0.60;;
28587;SDS011;15787;49.662;10.162;2022-10-16T01:17:01;1.60;;;0.73;;
28587;SDS011;15787;49.662;10.162;2022-10-16T01:19:41;3.67;;;1.00;;
28587;SDS011;15787;49.662;10.162;2022-10-16T01:22:21;1.67;;;0.95;;
28587;SDS011;15787;49.662;10.162;2022-10-16T01:24:53;2.95;;;0.57;;
28587;SDS011;15787;49.662;10.162;2022-10-16T01:27:28;2.33;;;0.70;;
28587;SDS011;15787;49.662;10.162;2022-10-16T01:30:04;3.30;;;0.90;;
28587;SDS011;15787;49.662;10.162;2022-10-16T01:32:38;2.05;;;0.80;;
28587;SDS011;15787;49.662;10.162;2022-10-16T01:35:09;1.85;;;0.70;;
28587;SDS011;15787;49.662;10.162;2022-10-16T01:37:41;7.05;;;0.90;;
28587;SDS011;15787;49.662;10.162;2022-10-16T01:40:16;4.70;;;0.75;;
28587;SDS011;15787;49.662;10.162;2022-10-16T01:42:49;4.20;;;0.77;;
28587;SDS011;15787;49.662;10.162;2022-10-16T01:45:20;1.48;;;0.77;;
28587;SDS011;15787;49.662;10.162;2022-10-16T01:47:49;2.13;;;0.77;;
28587;SDS011;15787;49.662;10.162;2022-10-16T01:50:20;1.95;;;1.13;;
28587;SDS011;15787;49.662;10.162;2022-10-16T01:52:49;3.58;;;0.90;;
28587;SDS011;15787;49.662;10.162;2022-10-16T01:55:22;2.88;;;0.80;;
28587;SDS011;15787;49.662;10.162;2022-10-16T01:57:57;3.95;;;0.95;;
28587;SDS011;15787;49.662;10.162;2022-10-16T02:00:29;2.63;;;0.70;;
28587;SDS011;15787;49.662;10.162;2022-10-16T02:02:58;1.65;;;0.77;;
28587;SDS011;15787;49.662;10.162;2022-10-16T02:05:30;1.23;;;0.65;;
28587;SDS011;15787;49.662;10.162;2022-10-16T02:08:01;2.38;;;0.95;;
28587;SDS011;15787;49.662;10.162;2022-10-16T02:10:31;1.50;;;0.90;;
28587;SDS011;15787;49.662;10.162;2022-10-16T02:13:06;4.93;;;0.75;;
28587;SDS011;15787;49.662;10.162;2022-10-16T02:15:37;2.33;;;0.70;;
28587;SDS011;15787;49.662;10.162;2022-10-16T02:18:05;5.10;;;0.90;;
28587;SDS011;15787;49.662;10.162;2022-10-16T02:20:37;2.00;;;0.70;;
28587;SDS011;15787;49.662;10.162;2022-10-16T02:23:11;3.53;;;0.70;;
28587;SDS011;15787;49.662;10.162;2022-10-16T02:25:46;3.95;;;0.77;;
28587;SDS011;15787;49.662;10.162;2022-10-16T02:28:16;3.60;;;0.85;;
28587;SDS011;15787;49.662;10.162;2022-10-16T02:30:48;3.17;;;0.90;;
28587;SDS011;15787;49.662;10.162;2022-10-16T02:33:20;1.55;;;0.65;;
28587;SDS011;15787;49.662;10.162;2022-10-16T02:35:50;3.55;;;1.23;;
28587;SDS011;15787;49.662;10.162;2022-10-16T02:38:20;2.47;;;0.75;;
28587;SDS011;15787;49.662;10.162;2022-10-16T02:40:48;3.00;;;0.90;;
28587;SDS011;15787;49.662;10.162;2022-10-16T02:43:18;1.85;;;0.75;;
28587;SDS011;15787;49.662;10.162;2022-10-16T02:45:46;1.90;;;0.70;;
28587;SDS011;15787;49.662;10.162;2022-10-16T02:48:14;3.70;;;0.80;;
28587;SDS011;15787;49.662;10.162;2022-10-16T02:50:42;1.83;;;0.85;;
28587;SDS011;15787;49.662;10.162;2022-10-16T02:53:10;1.75;;;1.00;;
28587;SDS011;15787;49.662;10.162;2022-10-16T02:55:38;2.78;;;1.10;;
28587;SDS011;15787;49.662;10.162;2022-10-16T02:58:06;5.10;;;1.38;;
28587;SDS011;15787;49.662;10.162;2022-10-16T03:00:35;3.47;;;1.13;;
28587;SDS011;15787;49.662;10.162;2022-10-16T03:03:03;3.35;;;0.98;;
28587;SDS011;15787;49.662;10.162;2022-10-16T03:05:31;2.17;;;1.00;;
28587;SDS011;15787;49.662;10.162;2022-10-16T03:07:59;3.60;;;0.90;;
28587;SDS011;15787;49.662;10.162;2022-10-16T03:10:27;1.73;;;0.90;;
28587;SDS011;15787;49.662;10.162;2022-10-16T03:12:55;2.47;;;0.88;;
28587;SDS011;15787;49.662;10.162;2022-10-16T03:15:23;1.85;;;0.85;;
28587;SDS011;15787;49.662;10.162;2022-10-16T03:17:53;1.95;;;0.95;;
28587;SDS011;15787;49.662;10.162;2022-10-16T03:20:21;3.22;;;1.00;;
28587;SDS011;15787;49.662;10.162;2022-10-16T03:22:49;1.52;;;0.82;;
28587;SDS011;15787;49.662;10.162;2022-10-16T03:25:17;5.68;;;0.98;;
28587;SDS011;15787;49.662;10.162;2022-10-16T03:27:45;2.80;;;0.80;;
28587;SDS011;15787;49.662;10.162;2022-10-16T03:30:13;1.77;;;1.23;;
28587;SDS011;15787;49.662;10.162;2022-10-16T03:32:41;3.72;;;0.80;;
28587;SDS011;15787;49.662;10.162;2022-10-16T03:35:12;2.77;;;0.80;;
28587;SDS011;15787;49.662;10.162;2022-10-16T03:37:40;2.95;;;0.80;;
28587;SDS011;15787;49.662;10.162;2022-10-16T03:40:08;2.65;;;1.25;;
28587;SDS011;15787;49.662;10.162;2022-10-16T03:42:37;2.20;;;0.90;;
28587;SDS011;15787;49.662;10.162;2022-10-16T03:45:05;3.95;;;1.25;;
28587;SDS011;15787;49.662;10.162;2022-10-16T03:47:33;1.60;;;0.80;;
28587;SDS011;15787;49.662;10.162;2022-10-16T03:50:01;3.65;;;1.00;;
28587;SDS011;15787;49.662;10.162;2022-10-16T03:52:31;2.53;;;1.13;;
28587;SDS011;15787;49.662;10.162;2022-10-16T03:54:59;6.57;;;1.30;;
28587;SDS011;15787;49.662;10.162;2022-10-16T03:57:27;2.00;;;0.80;;
28587;SDS011;15787;49.662;10.162;2022-10-16T03:59:55;3.30;;;1.27;;
28587;SDS011;15787;49.662;10.162;2022-10-16T04:02:23;2.92;;;1.02;;
28587;SDS011;15787;49.662;10.162;2022-10-16T04:04:51;1.42;;;0.85;;
28587;SDS011;15787;49.662;10.162;2022-10-16T04:07:19;3.20;;;0.80;;
28587;SDS011;15787;49.662;10.162;2022-10-16T04:09:48;1.95;;;0.90;;
28587;SDS011;15787;49.662;10.162;2022-10-16T04:12:18;4.00;;;0.82;;
28587;SDS011;15787;49.662;10.162;2022-10-16T04:14:46;1.20;;;0.68;;
28587;SDS011;15787;49.662;10.162;2022-10-16T04:17:14;3.05;;;0.70;;
28587;SDS011;15787;49.662;10.162;2022-10-16T04:19:42;1.90;;;0.90;;
28587;SDS011;15787;49.662;10.162;2022-10-16T04:22:09;3.55;;;0.80;;
28587;SDS011;15787;49.662;10.162;2022-10-16T04:24:37;2.25;;;0.82;;
28587;SDS011;15787;49.662;10.162;2022-10-16T04:27:07;1.52;;;0.82;;
28587;SDS011;15787;49.662;10.162;2022-10-16T04:29:35;2.25;;;1.10;;
28587;SDS011;15787;49.662;10.162;2022-10-16T04:32:03;3.75;;;1.23;;
28587;SDS011;15787;49.662;10.162;2022-10-16T04:34:31;21.55;;;2.22;;
28587;SDS011;15787;49.662;10.162;2022-10-16T04:36:59;3.85;;;1.05;;
28587;SDS011;15787;49.662;10.162;2022-10-16T04:39:27;1.48;;;0.68;;
28587;SDS011;15787;49.662;10.162;2022-10-16T04:41:54;3.65;;;1.40;;
28587;SDS011;15787;49.662;10.162;2022-10-16T04:44:24;1.52;;;0.90;;
28587;SDS011;15787;49.662;10.162;2022-10-16T04:46:52;1.35;;;0.95;;
28587;SDS011;15787;49.662;10.162;2022-10-16T04:49:19;2.28;;;0.90;;
28587;SDS011;15787;49.662;10.162;2022-10-16T04:51:47;1.77;;;0.93;;
28587;SDS011;15787;49.662;10.162;2022-10-16T04:54:15;3.60;;;0.88;;
28587;SDS011;15787;49.662;10.162;2022-10-16T04:56:43;3.50;;;1.73;;
28587;SDS011;15787;49.662;10.162;2022-10-16T04:59:13;1.88;;;0.90;;
28587;SDS011;15787;49.662;10.162;2022-10-16T05:01:43;1.13;;;0.80;;
28587;SDS011;15787;49.662;10.162;2022-10-16T05:04:11;4.57;;;1.00;;
28587;SDS011;15787;49.662;10.162;2022-10-16T05:06:41;4.07;;;1.27;;
28587;SDS011;15787;49.662;10.162;2022-10-16T05:09:09;3.08;;;1.20;;
28587;SDS011;15787;49.662;10.162;2022-10-16T05:11:37;3.83;;;0.98;;
28587;SDS011;15787;49.662;10.162;2022-10-16T05:14:05;2.78;;;1.23;;
28587;SDS011;15787;49.662;10.162;2022-10-16T05:16:33;2.30;;;1.42;;
28587;SDS011;15787;49.662;10.162;2022-10-16T05:19:02;2.33;;;1.10;;
28587;SDS011;15787;49.662;10.162;2022-10-16T05:21:50;1.70;;;0.98;;
28587;SDS011;15787;49.662;10.162;2022-10-16T05:24:18;3.70;;;1.10;;
28587;SDS011;15787;49.662;10.162;2022-10-16T05:26:46;1.90;;;0.90;;
28587;SDS011;15787;49.662;10.162;2022-10-16T05:29:14;1.52;;;1.05;;
28587;SDS011;15787;49.662;10.162;2022-10-16T05:31:42;1.90;;;1.15;;
28587;SDS011;15787;49.662;10.162;2022-10-16T05:34:11;3.35;;;0.98;;
28587;SDS011;15787;49.662;10.162;2022-10-16T05:36:39;3.97;;;1.13;;
28587;SDS011;15787;49.662;10.162;2022-10-16T05:39:07;1.30;;;1.00;;
28587;SDS011;15787;49.662;10.162;2022-10-16T05:41:35;2.88;;;1.10;;
28587;SDS011;15787;49.662;10.162;2022-10-16T05:44:03;3.13;;;0.80;;
28587;SDS011;15787;49.662;10.162;2022-10-16T05:46:33;3.05;;;0.90;;
28587;SDS011;15787;49.662;10.162;2022-10-16T05:49:01;5.13;;;2.55;;
28587;SDS011;15787;49.662;10.162;2022-10-16T05:51:30;5.57;;;3.50;;
28587;SDS011;15787;49.662;10.162;2022-10-16T05:53:58;1.55;;;0.90;;
28587;SDS011;15787;49.662;10.162;2022-10-16T05:56:26;1.40;;;0.80;;
28587;SDS011;15787;49.662;10.162;2022-10-16T05:58:53;1.40;;;0.80;;
28587;SDS011;15787;49.662;10.162;2022-10-16T06:01:21;3.60;;;0.80;;
28587;SDS011;15787;49.662;10.162;2022-10-16T06:03:51;3.03;;;0.93;;
28587;SDS011;15787;49.662;10.162;2022-10-16T06:06:20;2.30;;;0.90;;
28587;SDS011;15787;49.662;10.162;2022-10-16T06:08:52;1.85;;;0.80;;
28587;SDS011;15787;49.662;10.162;2022-10-16T06:11:21;3.80;;;0.93;;
28587;SDS011;15787;49.662;10.162;2022-10-16T06:13:52;3.33;;;1.00;;
28587;SDS011;15787;49.662;10.162;2022-10-16T06:16:23;4.63;;;1.00;;
28587;SDS011;15787;49.662;10.162;2022-10-16T06:18:52;1.55;;;0.98;;
28587;SDS011;15787;49.662;10.162;2022-10-16T06:21:23;1.75;;;0.95;;
28587;SDS011;15787;49.662;10.162;2022-10-16T06:23:53;6.30;;;1.40;;
28587;SDS011;15787;49.662;10.162;2022-10-16T06:26:23;4.13;;;1.27;;
28587;SDS011;15787;49.662;10.162;2022-10-16T06:28:53;3.35;;;1.55;;
28587;SDS011;15787;49.662;10.162;2022-10-16T06:31:22;2.20;;;1.30;;
28587;SDS011;15787;49.662;10.162;2022-10-16T06:33:54;3.25;;;1.50;;
28587;SDS011;15787;49.662;10.162;2022-10-16T06:36:22;2.72;;;1.42;;
28587;SDS011;15787;49.662;10.162;2022-10-16T06:38:51;4.25;;;1.55;;
28587;SDS011;15787;49.662;10.162;2022-10-16T06:41:21;2.85;;;1.30;;
28587;SDS011;15787;49.662;10.162;2022-10-16T06:43:50;4.38;;;1.48;;
28587;SDS011;15787;49.662;10.162;2022-10-16T06:46:19;2.25;;;1.10;;
28587;SDS011;15787;49.662;10.162;2022-10-16T06:48:48;3.75;;;1.30;;
28587;SDS011;15787;49.662;10.162;2022-10-16T06:51:17;4.07;;;1.10;;
28587;SDS011;15787;49.662;10.162;2022-10-16T06:53:47;3.83;;;1.02;;
28587;SDS011;15787;49.662;10.162;2022-10-16T06:56:33;3.05;;;1.42;;
28587;SDS011;15787;49.662;10.162;2022-10-16T06:59:01;3.90;;;1.25;;
28587;SDS011;15787;49.662;10.162;2022-10-16T07:01:30;2.67;;;1.20;;
28587;SDS011;15787;49.662;10.162;2022-10-16T07:03:58;3.70;;;1.30;;
28587;SDS011;15787;49.662;10.162;2022-10-16T07:06:27;4.25;;;1.52;;
28587;SDS011;15787;49.662;10.162;2022-10-16T07:09:00;2.40;;;1.33;;
28587;SDS011;15787;49.662;10.162;2022-10-16T07:11:29;5.50;;;1.80;;
28587;SDS011;15787;49.662;10.162;2022-10-16T07:13:59;2.33;;;0.90;;
28587;SDS011;15787;49.662;10.162;2022-10-16T07:16:27;4.13;;;1.30;;
28587;SDS011;15787;49.662;10.162;2022-10-16T07:18:57;1.50;;;0.90;;
28587;SDS011;15787;49.662;10.162;2022-10-16T07:21:27;2.03;;;1.23;;
28587;SDS011;15787;49.662;10.162;2022-10-16T07:23:57;5.68;;;1.10;;
28587;SDS011;15787;49.662;10.162;2022-10-16T07:26:28;2.22;;;1.10;;
28587;SDS011;15787;49.662;10.162;2022-10-16T07:28:59;2.92;;;1.00;;
28587;SDS011;15787;49.662;10.162;2022-10-16T07:31:27;6.75;;;1.02;;
28587;SDS011;15787;49.662;10.162;2022-10-16T07:33:57;3.38;;;1.10;;
28587;SDS011;15787;49.662;10.162;2022-10-16T07:36:26;1.27;;;0.90;;
28587;SDS011;15787;49.662;10.162;2022-10-16T07:38:54;2.80;;;1.00;;
28587;SDS011;15787;49.662;10.162;2022-10-16T07:41:25;1.73;;;0.88;;
28587;SDS011;15787;49.662;10.162;2022-10-16T07:43:54;4.18;;;1.00;;
28587;SDS011;15787;49.662;10.162;2022-10-16T07:46:24;3.78;;;1.20;;
28587;SDS011;15787;49.662;10.162;2022-10-16T07:48:52;1.77;;;0.98;;
28587;SDS011;15787;49.662;10.162;2022-10-16T07:51:20;3.53;;;1.30;;
28587;SDS011;15787;49.662;10.162;2022-10-16T07:53:50;2.00;;;1.10;;
28587;SDS011;15787;49.662;10.162;2022-10-16T07:56:19;4.03;;;1.77;;
28587;SDS011;15787;49.662;10.162;2022-10-16T07:58:48;2.40;;;1.35;;
28587;SDS011;15787;49.662;10.162;2022-10-16T08:01:17;2.45;;;1.00;;
28587;SDS011;15787;49.662;10.162;2022-10-16T08:03:48;2.10;;;1.20;;
28587;SDS011;15787;49.662;10.162;2022-10-16T08:06:17;2.00;;;1.10;;
28587;SDS011;15787;49.662;10.162;2022-10-16T08:08:52;6.70;;;1.63;;
28587;SDS011;15787;49.662;10.162;2022-10-16T08:11:20;1.85;;;1.13;;
28587;SDS011;15787;49.662;10.162;2022-10-16T08:13:48;5.68;;;1.23;;
28587;SDS011;15787;49.662;10.162;2022-10-16T08:16:16;3.13;;;1.25;;
28587;SDS011;15787;49.662;10.162;2022-10-16T08:18:44;4.70;;;1.38;;
28587;SDS011;15787;49.662;10.162;2022-10-16T08:21:14;3.60;;;1.20;;
28587;SDS011;15787;49.662;10.162;2022-10-16T08:23:47;4.03;;;1.10;;
28587;SDS011;15787;49.662;10.162;2022-10-16T08:26:22;3.58;;;1.00;;
28587;SDS011;15787;49.662;10.162;2022-10-16T08:28:50;5.72;;;1.38;;
28587;SDS011;15787;49.662;10.162;2022-10-16T08:31:19;1.45;;;0.90;;
28587;SDS011;15787;49.662;10.162;2022-10-16T08:33:47;4.55;;;1.67;;
28587;SDS011;15787;49.662;10.162;2022-10-16T08:36:16;3.05;;;1.10;;
28587;SDS011;15787;49.662;10.162;2022-10-16T08:38:46;5.32;;;1.23;;
28587;SDS011;15787;49.662;10.162;2022-10-16T08:41:24;5.05;;;1.17;;
28587;SDS011;15787;49.662;10.162;2022-10-16T08:44:05;3.35;;;1.05;;
28587;SDS011;15787;49.662;10.162;2022-10-16T08:46:51;3.10;;;1.00;;
28587;SDS011;15787;49.662;10.162;2022-10-16T08:49:30;4.20;;;1.05;;
28587;SDS011;15787;49.662;10.162;2022-10-16T08:52:00;3.50;;;1.05;;
28587;SDS011;15787;49.662;10.162;2022-10-16T08:54:28;2.78;;;0.80;;
28587;SDS011;15787;49.662;10.162;2022-10-16T08:57:06;1.90;;;0.85;;
28587;SDS011;15787;49.662;10.162;2022-10-16T08:59:37;6.57;;;1.20;;
28587;SDS011;15787;49.662;10.162;2022-10-16T09:02:11;1.70;;;0.90;;
28587;SDS011;15787;49.662;10.162;2022-10-16T09:04:53;9.23;;;1.50;;
28587;SDS011;15787;49.662;10.162;2022-10-16T09:07:32;4.50;;;1.23;;
28587;SDS011;15787;49.662;10.162;2022-10-16T09:10:11;4.35;;;1.10;;
28587;SDS011;15787;49.662;10.162;2022-10-16T09:12:52;3.30;;;1.00;;
28587;SDS011;15787;49.662;10.162;2022-10-16T09:15:25;7.57;;;1.35;;
28587;SDS011;15787;49.662;10.162;2022-10-16T09:17:59;5.57;;;1.58;;
28587;SDS011;15787;49.662;10.162;2022-10-16T09:20:42;6.32;;;1.85;;
28587;SDS011;15787;49.662;10.162;2022-10-16T09:23:19;2.80;;;1.95;;
28587;SDS011;15787;49.662;10.162;2022-10-16T09:25:50;3.88;;;2.00;;
28587;SDS011;15787;49.662;10.162;2022-10-16T09:28:20;6.55;;;2.80;;
28587;SDS011;15787;49.662;10.162;2022-10-16T09:30:48;5.63;;;2.28;;
28587;SDS011;15787;49.662;10.162;2022-10-16T09:33:17;2.60;;;1.60;;
28587;SDS011;15787;49.662;10.162;2022-10-16T09:35:48;3.75;;;1.45;;
28587;SDS011;15787;49.662;10.162;2022-10-16T09:38:24;3.63;;;1.33;;
28587;SDS011;15787;49.662;10.162;2022-10-16T09:40:54;3.22;;;1.42;;
28587;SDS011;15787;49.662;10.162;2022-10-16T09:43:28;3.50;;;2.05;;
28587;SDS011;15787;49.662;10.162;2022-10-16T09:46:03;10.20;;;1.42;;
28587;SDS011;15787;49.662;10.162;2022-10-16T09:48:34;5.28;;;1.30;;
28587;SDS011;15787;49.662;10.162;2022-10-16T09:51:05;2.40;;;1.23;;
28587;SDS011;15787;49.662;10.162;2022-10-16T09:53:39;4.07;;;1.13;;
28587;SDS011;15787;49.662;10.162;2022-10-16T09:56:10;3.03;;;1.30;;
28587;SDS011;15787;49.662;10.162;2022-10-16T10:01:12;3.92;;;1.13;;
28587;SDS011;15787;49.662;10.162;2022-10-16T10:03:42;5.63;;;1.80;;
28587;SDS011;15787;49.662;10.162;2022-10-16T10:06:18;4.50;;;1.60;;
28587;SDS011;15787;49.662;10.162;2022-10-16T10:08:56;2.65;;;1.35;;
28587;SDS011;15787;49.662;10.162;2022-10-16T10:11:42;5.45;;;1.63;;
28587;SDS011;15787;49.662;10.162;2022-10-16T10:14:16;4.32;;;1.83;;
28587;SDS011;15787;49.662;10.162;2022-10-16T10:16:47;4.57;;;1.90;;
28587;SDS011;15787;49.662;10.162;2022-10-16T10:19:17;4.60;;;1.65;;
28587;SDS011;15787;49.662;10.162;2022-10-16T10:21:47;2.00;;;1.33;;
28587;SDS011;15787;49.662;10.162;2022-10-16T10:24:18;4.20;;;1.65;;
28587;SDS011;15787;49.662;10.162;2022-10-16T10:26:49;2.30;;;1.10;;
28587;SDS011;15787;49.662;10.162;2022-10-16T10:29:31;3.17;;;0.90;;
28587;SDS011;15787;49.662;10.162;2022-10-16T10:32:15;3.72;;;1.00;;
28587;SDS011;15787;49.662;10.162;2022-10-16T10:34:57;7.55;;;2.38;;
28587;SDS011;15787;49.662;10.162;2022-10-16T10:37:42;2.90;;;1.10;;
28587;SDS011;15787;49.662;10.162;2022-10-16T10:40:27;1.63;;;1.00;;
28587;SDS011;15787;49.662;10.162;2022-10-16T10:43:04;1.40;;;0.68;;
28587;SDS011;15787;49.662;10.162;2022-10-16T10:45:37;2.80;;;0.70;;
28587;SDS011;15787;49.662;10.162;2022-10-16T10:48:17;2.70;;;0.75;;
28587;SDS011;15787;49.662;10.162;2022-10-16T10:50:52;4.30;;;1.10;;
28587;SDS011;15787;49.662;10.162;2022-10-16T10:53:29;2.33;;;0.63;;
28587;SDS011;15787;49.662;10.162;2022-10-16T10:56:16;2.42;;;1.00;;
28587;SDS011;15787;49.662;10.162;2022-10-16T10:59:07;10.32;;;1.90;;
28587;SDS011;15787;49.662;10.162;2022-10-16T11:01:48;7.82;;;1.98;;
28587;SDS011;15787;49.662;10.162;2022-10-16T11:04:29;0.00;;;0.00;;
28587;SDS011;15787;49.662;10.162;2022-10-16T11:07:10;0.00;;;0.00;;
28587;SDS011;15787;49.662;10.162;2022-10-16T11:09:43;0.00;;;0.00;;
28587;SDS011;15787;49.662;10.162;2022-10-16T11:12:17;0.00;;;0.00;;
28587;SDS011;15787;49.662;10.162;2022-10-16T11:14:48;0.25;;;0.25;;
28587;SDS011;15787;49.662;10.162;2022-10-16T11:17:25;0.52;;;0.52;;
28587;SDS011;15787;49.662;10.162;2022-10-16T11:19:58;0.00;;;0.00;;
28587;SDS011;15787;49.662;10.162;2022-10-16T11:22:33;0.00;;;0.00;;
28587;SDS011;15787;49.662;10.162;2022-10-16T11:25:05;0.00;;;0.00;;
28587;SDS011;15787;49.662;10.162;2022-10-16T11:27:43;0.00;;;0.00;;
28587;SDS011;15787;49.662;10.162;2022-10-16T11:30:16;0.00;;;0.00;;
28587;SDS011;15787;49.662;10.162;2022-10-16T11:32:57;4.45;;;2.75;;
28587;SDS011;15787;49.662;10.162;2022-10-16T11:35:36;0.88;;;0.88;;
28587;SDS011;15787;49.662;10.162;2022-10-16T11:38:10;0.00;;;0.00;;
28587;SDS011;15787;49.662;10.162;2022-10-16T11:40:43;0.00;;;0.00;;
28587;SDS011;15787;49.662;10.162;2022-10-16T11:43:19;0.00;;;0.00;;
28587;SDS011;15787;49.662;10.162;2022-10-16T11:45:53;0.00;;;0.00;;
28587;SDS011;15787;49.662;10.162;2022-10-16T11:48:24;0.00;;;0.00;;
28587;SDS011;15787;49.662;10.162;2022-10-16T11:51:00;0.15;;;0.15;;
28587;SDS011;15787;49.662;10.162;2022-10-16T11:53:37;0.00;;;0.00;;
28587;SDS011;15787;49.662;10.162;2022-10-16T11:56:12;0.00;;;0.00;;
28587;SDS011;15787;49.662;10.162;2022-10-16T11:58:47;0.00;;;0.00;;
28587;SDS011;15787;49.662;10.162;2022-10-16T12:01:22;0.00;;;0.00;;
28587;SDS011;15787;49.662;10.162;2022-10-16T12:04:02;0.00;;;0.00;;
28587;SDS011;15787;49.662;10.162;2022-10-16T12:06:40;0.00;;;0.00;;
28587;SDS011;15787;49.662;10.162;2022-10-16T12:09:14;0.00;;;0.00;;
28587;SDS011;15787;49.662;10.162;2022-10-16T12:11:48;0.00;;;0.00;;
28587;SDS011;15787;49.662;10.162;2022-10-16T12:14:22;0.00;;;0.00;;
28587;SDS011;15787;49.662;10.162;2022-10-16T12:17:24;0.20;;;0.20;;
28587;SDS011;15787;49.662;10.162;2022-10-16T12:19:57;0.10;;;0.10;;
28587;SDS011;15787;49.662;10.162;2022-10-16T12:22:27;0.00;;;0.00;;
28587;SDS011;15787;49.662;10.162;2022-10-16T12:24:56;0.00;;;0.00;;
28587;SDS011;15787;49.662;10.162;2022-10-16T12:27:27;0.00;;;0.00;;
28587;SDS011;15787;49.662;10.162;2022-10-16T12:29:58;0.00;;;0.00;;
28587;SDS011;15787;49.662;10.162;2022-10-16T12:32:29;0.00;;;0.00;;
28587;SDS011;15787;49.662;10.162;2022-10-16T12:35:17;0.00;;;0.00;;
28587;SDS011;15787;49.662;10.162;2022-10-16T12:37:47;0.00;;;0.00;;
28587;SDS011;15787;49.662;10.162;2022-10-16T12:40:23;0.00;;;0.00;;
28587;SDS011;15787;49.662;10.162;2022-10-16T12:42:57;0.00;;;0.00;;
28587;SDS011;15787;49.662;10.162;2022-10-16T12:45:28;0.00;;;0.00;;
28587;SDS011;15787;49.662;10.162;2022-10-16T12:47:59;0.00;;;0.00;;
28587;SDS011;15787;49.662;10.162;2022-10-16T12:50:32;0.00;;;0.00;;
28587;SDS011;15787;49.662;10.162;2022-10-16T12:53:03;0.00;;;0.00;;
28587;SDS011;15787;49.662;10.162;2022-10-16T12:55:46;0.00;;;0.00;;
28587;SDS011;15787;49.662;10.162;2022-10-16T12:58:31;0.00;;;0.00;;
28587;SDS011;15787;49.662;10.162;2022-10-16T13:01:15;0.00;;;0.00;;
28587;SDS011;15787;49.662;10.162;2022-10-16T13:04:00;1.55;;;1.45;;
28587;SDS011;15787;49.662;10.162;2022-10-16T13:06:39;0.00;;;0.00;;
28587;SDS011;15787;49.662;10.162;2022-10-16T13:12:23;1.30;;;1.23;;
28587;SDS011;15787;49.662;10.162;2022-10-16T13:18:04;0.00;;;0.00;;
28587;SDS011;15787;49.662;10.162;2022-10-16T13:20:46;0.00;;;0.00;;
28587;SDS011;15787;49.662;10.162;2022-10-16T13:23:25;0.00;;;0.00;;
28587;SDS011;15787;49.662;10.162;2022-10-16T13:26:04;0.95;;;0.60;;
28587;SDS011;15787;49.662;10.162;2022-10-16T13:28:42;1.40;;;0.60;;
28587;SDS011;15787;49.662;10.162;2022-10-16T13:31:12;1.42;;;0.60;;
28587;SDS011;15787;49.662;10.162;2022-10-16T13:33:47;15.73;;;2.60;;
28587;SDS011;15787;49.662;10.162;2022-10-16T13:36:19;3.30;;;0.70;;
28587;SDS011;15787;49.662;10.162;2022-10-16T13:38:57;1.73;;;0.60;;
28587;SDS011;15787;49.662;10.162;2022-10-16T13:41:28;2.87;;;0.93;;
28587;SDS011;15787;49.662;10.162;2022-10-16T13:43:56;4.00;;;0.70;;
28587;SDS011;15787;49.662;10.162;2022-10-16T13:46:25;1.90;;;0.90;;
28587;SDS011;15787;49.662;10.162;2022-10-16T13:48:57;3.10;;;0.77;;
28587;SDS011;15787;49.662;10.162;2022-10-16T13:51:26;3.40;;;0.80;;
28587;SDS011;15787;49.662;10.162;2022-10-16T13:53:55;1.83;;;0.80;;
28587;SDS011;15787;49.662;10.162;2022-10-16T13:56:25;3.80;;;0.75;;
28587;SDS011;15787;49.662;10.162;2022-10-16T13:58:58;2.90;;;0.70;;
28587;SDS011;15787;49.662;10.162;2022-10-16T14:01:27;2.17;;;0.85;;
28587;SDS011;15787;49.662;10.162;2022-10-16T14:04:04;2.88;;;0.80;;
28587;SDS011;15787;49.662;10.162;2022-10-16T14:06:34;4.85;;;0.93;;
28587;SDS011;15787;49.662;10.162;2022-10-16T14:09:05;3.08;;;0.90;;
28587;SDS011;15787;49.662;10.162;2022-10-16T14:11:34;2.00;;;0.70;;
28587;SDS011;15787;49.662;10.162;2022-10-16T14:14:12;3.03;;;0.90;;
28587;SDS011;15787;49.662;10.162;2022-10-16T14:16:40;1.58;;;0.77;;
28587;SDS011;15787;49.662;10.162;2022-10-16T14:19:15;5.07;;;1.08;;
28587;SDS011;15787;49.662;10.162;2022-10-16T14:21:48;2.25;;;0.80;;
28587;SDS011;15787;49.662;10.162;2022-10-16T14:24:25;5.43;;;0.90;;
28587;SDS011;15787;49.662;10.162;2022-10-16T14:26:54;2.53;;;0.90;;
28587;SDS011;15787;49.662;10.162;2022-10-16T14:29:23;1.92;;;0.60;;
28587;SDS011;15787;49.662;10.162;2022-10-16T14:31:56;3.33;;;0.88;;
28587;SDS011;15787;49.662;10.162;2022-10-16T14:34:28;3.80;;;0.90;;
28587;SDS011;15787;49.662;10.162;2022-10-16T14:36:59;4.38;;;1.25;;
28587;SDS011;15787;49.662;10.162;2022-10-16T14:39:38;3.78;;;0.77;;
28587;SDS011;15787;49.662;10.162;2022-10-16T14:42:11;1.88;;;0.85;;
28587;SDS011;15787;49.662;10.162;2022-10-16T14:44:42;3.67;;;1.20;;
28587;SDS011;15787;49.662;10.162;2022-10-16T14:47:12;1.38;;;0.93;;
28587;SDS011;15787;49.662;10.162;2022-10-16T14:49:44;3.88;;;0.80;;
28587;SDS011;15787;49.662;10.162;2022-10-16T14:52:11;4.95;;;1.20;;
28587;SDS011;15787;49.662;10.162;2022-10-16T14:54:40;3.95;;;0.98;;
28587;SDS011;15787;49.662;10.162;2022-10-16T14:57:15;1.90;;;1.20;;
28587;SDS011;15787;49.662;10.162;2022-10-16T14:59:44;5.00;;;1.17;;
28587;SDS011;15787;49.662;10.162;2022-10-16T15:02:16;1.67;;;0.90;;
28587;SDS011;15787;49.662;10.162;2022-10-16T15:04:52;6.15;;;1.10;;
28587;SDS011;15787;49.662;10.162;2022-10-16T15:07:22;4.80;;;0.93;;
28587;SDS011;15787;49.662;10.162;2022-10-16T15:09:50;2.00;;;0.90;;
28587;SDS011;15787;49.662;10.162;2022-10-16T15:12:19;3.53;;;1.30;;